createdAt,value
2018-09-15T00:00:46.532Z,96528.28
2018-09-15T00:03:17.299Z,96524.23
2018-09-15T00:05:47.735Z,96527.77
2018-09-15T00:08:18.111Z,96529.25
2018-09-15T00:10:48.693Z,96533.75
2018-09-15T00:13:20.326Z,96537.89
2018-09-15T00:15:50.747Z,96531.47
2018-09-15T00:18:21.704Z,96538.42
2018-09-15T00:20:52.194Z,96544.47
2018-09-15T00:23:22.544Z,96544.78
2018-09-15T00:25:52.982Z,96547.53
2018-09-15T00:28:23.531Z,96544.81
2018-09-15T00:30:53.950Z,96540.27
2018-09-15T00:33:24.311Z,96538.48
2018-09-15T00:35:54.093Z,96535.59
2018-09-15T00:38:24.814Z,96538.28
2018-09-15T00:40:54.986Z,96528.21
2018-09-15T00:43:25.183Z,96521.91
2018-09-15T00:45:55.675Z,96525.70
2018-09-15T00:48:26.221Z,96523.36
2018-09-15T00:50:56.147Z,96524.58
2018-09-15T00:53:26.311Z,96530.44
2018-09-15T00:55:57.063Z,96526.53
2018-09-15T00:58:27.409Z,96532.53
2018-09-15T01:00:58.131Z,96531.55
2018-09-15T01:03:29.264Z,96540.45
2018-09-15T01:06:00.178Z,96536.12
2018-09-15T01:08:30.639Z,96535.69
2018-09-15T01:11:00.985Z,96536.48
2018-09-15T01:13:31.413Z,96542.90
2018-09-15T01:16:01.817Z,96539.67
2018-09-15T01:18:32.563Z,96533.56
2018-09-15T01:21:02.492Z,96531.77
2018-09-15T01:23:32.422Z,96536.73
2018-09-15T01:26:02.312Z,96530.89
2018-09-15T01:28:32.847Z,96530.30
2018-09-15T01:31:04.715Z,96534.94
2018-09-15T01:33:35.115Z,96535.63
2018-09-15T01:36:05.735Z,96538.08
2018-09-15T01:38:36.099Z,96538.45
2018-09-15T01:41:06.621Z,96527.77
2018-09-15T01:43:36.958Z,96531.20
2018-09-15T01:46:06.770Z,96535.59
2018-09-15T01:48:36.609Z,96539.55
2018-09-15T01:51:07.124Z,96537.38
2018-09-15T01:53:36.932Z,96541.04
2018-09-15T01:56:06.780Z,96540.51
2018-09-15T01:58:36.614Z,96541.23
2018-09-15T02:01:06.482Z,96543.45
2018-09-15T02:03:36.296Z,96544.84
2018-09-15T02:06:06.223Z,96541.06
2018-09-15T02:08:36.020Z,96542.54
2018-09-15T02:11:06.177Z,96546.92
2018-09-15T02:13:36.000Z,96545.73
2018-09-15T02:16:06.064Z,96556.27
2018-09-15T02:18:35.888Z,96551.24
2018-09-15T02:21:05.782Z,96553.67
2018-09-15T02:23:35.634Z,96551.89
2018-09-15T02:26:05.622Z,96548.69
2018-09-15T02:28:35.401Z,96546.58
2018-09-15T02:31:05.290Z,96555.28
2018-09-15T02:33:35.101Z,96557.84
2018-09-15T02:36:05.651Z,96553.16
2018-09-15T02:38:35.447Z,96552.47
2018-09-15T02:41:05.960Z,96553.89
2018-09-15T02:43:36.110Z,96554.89
2018-09-15T02:46:05.950Z,96549.58
2018-09-15T02:48:35.874Z,96561.87
2018-09-15T02:51:05.752Z,96561.06
2018-09-15T02:53:35.631Z,96558.37
2018-09-15T02:56:05.476Z,96562.75
2018-09-15T02:58:35.319Z,96564.93
2018-09-15T03:01:05.615Z,96562.02
2018-09-15T03:03:35.465Z,96564.44
2018-09-15T03:06:05.331Z,96564.58
2018-09-15T03:08:35.131Z,96562.53
2018-09-15T03:11:05.081Z,96566.45
2018-09-15T03:13:34.875Z,96564.94
2018-09-15T03:16:04.726Z,96570.59
2018-09-15T03:18:34.577Z,96572.36
2018-09-15T03:21:04.623Z,96578.81
2018-09-15T03:23:34.607Z,96578.52
2018-09-15T03:26:04.735Z,96586.74
2018-09-15T03:28:34.499Z,96584.58
2018-09-15T03:31:04.375Z,96586.29
2018-09-15T03:33:35.215Z,96596.20
2018-09-15T03:36:05.031Z,96593.04
2018-09-15T03:38:35.451Z,96591.26
2018-09-15T03:41:05.523Z,96597.47
2018-09-15T03:43:35.333Z,96597.06
2018-09-15T03:46:05.521Z,96604.36
2018-09-15T03:48:36.215Z,96604.95
2018-09-15T03:51:06.665Z,96601.00
2018-09-15T03:53:36.467Z,96607.99
2018-09-15T03:56:06.259Z,96607.25
2018-09-15T03:58:36.121Z,96611.67
2018-09-15T04:01:06.135Z,96617.53
2018-09-15T04:03:36.563Z,96616.16
2018-09-15T04:06:06.784Z,96624.45
2018-09-15T04:08:36.609Z,96627.12
2018-09-15T04:11:06.445Z,96626.38
2018-09-15T04:13:36.314Z,96626.78
2018-09-15T04:16:06.523Z,96632.78
2018-09-15T04:18:36.323Z,96634.49
2018-09-15T04:21:06.194Z,96635.38
2018-09-15T04:23:36.011Z,96639.11
2018-09-15T04:26:05.875Z,96637.16
2018-09-15T04:28:35.748Z,96631.58
2018-09-15T04:31:05.773Z,96637.63
2018-09-15T04:33:35.614Z,96640.84
2018-09-15T04:36:05.462Z,96645.78
2018-09-15T04:38:35.268Z,96643.36
2018-09-15T04:41:05.179Z,96649.72
2018-09-15T04:43:34.969Z,96645.94
2018-09-15T04:46:05.123Z,96650.66
2018-09-15T04:48:35.212Z,96655.70
2018-09-15T04:51:05.103Z,96658.75
2018-09-15T04:53:34.905Z,96656.29
2018-09-15T04:56:04.753Z,96657.27
2018-09-15T04:58:34.937Z,96654.05
2018-09-15T05:01:05.049Z,96664.29
2018-09-15T05:03:35.262Z,96662.69
2018-09-15T05:06:05.115Z,96661.63
2018-09-15T05:08:35.243Z,96664.28
2018-09-15T05:11:05.381Z,96671.58
2018-09-15T05:13:35.591Z,96676.41
2018-09-15T05:16:06.385Z,96682.24
2018-09-15T05:18:36.196Z,96687.73
2018-09-15T05:21:06.767Z,96681.98
2018-09-15T05:23:36.602Z,96687.63
2018-09-15T05:26:06.363Z,96690.38
2018-09-15T05:28:36.199Z,96688.92
2018-09-15T05:31:06.968Z,96695.29
2018-09-15T05:33:36.889Z,96695.06
2018-09-15T05:36:06.796Z,96698.68
2018-09-15T05:38:37.466Z,96703.14
2018-09-15T05:41:07.476Z,96701.83
2018-09-15T05:43:38.160Z,96707.33
2018-09-15T05:46:08.292Z,96703.09
2018-09-15T05:48:38.120Z,96709.06
2018-09-15T05:51:08.978Z,96712.38
2018-09-15T05:53:38.844Z,96728.01
2018-09-15T05:56:08.968Z,96731.66
2018-09-15T05:58:39.231Z,96731.67
2018-09-15T06:01:09.169Z,96729.72
2018-09-15T06:03:38.996Z,96732.27
2018-09-15T06:06:08.796Z,96733.45
2018-09-15T06:08:39.076Z,96737.44
2018-09-15T06:11:08.960Z,96737.02
2018-09-15T06:13:38.880Z,96737.22
2018-09-15T06:16:09.122Z,96743.33
2018-09-15T06:18:38.984Z,96741.44
2018-09-15T06:21:10.048Z,96737.84
2018-09-15T06:23:39.942Z,96742.18
2018-09-15T06:26:11.849Z,96746.91
2018-09-15T06:28:41.836Z,96756.16
2018-09-15T06:31:12.064Z,96754.34
2018-09-15T06:33:41.881Z,96748.86
2018-09-15T06:36:11.698Z,96746.09
2018-09-15T06:38:41.735Z,96752.06
2018-09-15T06:41:11.600Z,96750.44
2018-09-15T06:43:41.662Z,96751.79
2018-09-15T06:46:11.489Z,96746.84
2018-09-15T06:48:41.298Z,96749.03
2018-09-15T06:51:11.770Z,96749.80
2018-09-15T06:53:41.639Z,96752.94
2018-09-15T06:56:11.630Z,96754.68
2018-09-15T06:58:41.474Z,96754.20
2018-09-15T07:01:11.550Z,96756.50
2018-09-15T07:03:41.773Z,96759.47
2018-09-15T07:06:11.850Z,96757.99
2018-09-15T07:08:41.685Z,96761.07
2018-09-15T07:11:12.730Z,96762.25
2018-09-15T07:13:42.626Z,96762.20
2018-09-15T07:16:12.695Z,96764.98
2018-09-15T07:18:42.770Z,96766.48
2018-09-15T07:21:13.000Z,96763.69
2018-09-15T07:23:43.748Z,96762.39
2018-09-15T07:26:14.184Z,96767.23
2018-09-15T07:28:44.989Z,96768.23
2018-09-15T07:31:15.489Z,96768.54
2018-09-15T07:33:46.024Z,96773.91
2018-09-15T07:36:16.420Z,96772.70
2018-09-15T07:38:46.832Z,96772.44
2018-09-15T07:41:17.258Z,96772.00
2018-09-15T07:43:47.675Z,96780.86
2018-09-15T07:46:18.077Z,96775.56
2018-09-15T07:48:48.462Z,96779.47
2018-09-15T07:51:18.897Z,96784.61
2018-09-15T07:53:49.613Z,96786.59
2018-09-15T07:56:20.023Z,96788.91
2018-09-15T07:58:50.508Z,96789.41
2018-09-15T08:01:20.871Z,96791.22
2018-09-15T08:03:51.597Z,96782.73
2018-09-15T08:06:21.686Z,96782.66
2018-09-15T08:08:51.567Z,96777.77
2018-09-15T08:11:22.315Z,96775.42
2018-09-15T08:13:52.423Z,96781.97
2018-09-15T08:16:22.515Z,96785.30
2018-09-15T08:18:52.553Z,96788.39
2018-09-15T08:21:22.326Z,96782.87
2018-09-15T08:23:52.221Z,96784.98
2018-09-15T08:26:22.493Z,96790.17
2018-09-15T08:28:52.582Z,96788.14
2018-09-15T08:31:22.457Z,96784.95
2018-09-15T08:33:52.296Z,96787.78
2018-09-15T08:36:22.141Z,96796.66
2018-09-15T08:38:51.938Z,96795.83
2018-09-15T08:41:21.797Z,96799.70
2018-09-15T08:43:51.846Z,96799.07
2018-09-15T08:46:22.337Z,96788.81
2018-09-15T08:48:52.725Z,96785.23
2018-09-15T08:51:23.481Z,96792.98
2018-09-15T08:53:53.836Z,96792.81
2018-09-15T08:56:24.589Z,96794.48
2018-09-15T08:58:55.389Z,96794.13
2018-09-15T09:01:25.824Z,96790.83
2018-09-15T09:03:56.195Z,96792.89
2018-09-15T09:06:26.986Z,96790.95
2018-09-15T09:08:57.587Z,96791.41
2018-09-15T09:11:28.302Z,96799.36
2018-09-15T09:13:58.662Z,96792.05
2018-09-15T09:16:29.080Z,96796.09
2018-09-15T09:18:59.484Z,96790.52
2018-09-15T09:21:30.157Z,96797.33
2018-09-15T09:24:00.561Z,96792.81
2018-09-15T09:26:31.171Z,96779.47
2018-09-15T09:29:02.423Z,96790.05
2018-09-15T09:31:32.877Z,96793.44
2018-09-15T09:34:03.558Z,96788.38
2018-09-15T09:36:34.055Z,96783.30
2018-09-15T09:39:06.129Z,96783.61
2018-09-15T09:41:36.835Z,96780.61
2018-09-15T09:44:07.349Z,96780.86
2018-09-15T09:46:37.783Z,96784.87
2018-09-15T09:49:08.315Z,96775.70
2018-09-15T09:51:39.475Z,96784.06
2018-09-15T09:54:09.917Z,96784.97
2018-09-15T09:56:40.368Z,96777.34
2018-09-15T09:59:10.793Z,96785.63
2018-09-15T10:01:46.397Z,96781.92
2018-09-15T10:04:16.789Z,96783.90
2018-09-15T10:06:47.210Z,96779.36
2018-09-15T10:09:17.615Z,96774.58
2018-09-15T10:11:48.253Z,96781.61
2018-09-15T10:14:18.913Z,96782.08
2018-09-15T10:16:49.317Z,96783.65
2018-09-15T10:19:20.085Z,96791.66
2018-09-15T10:21:50.461Z,96784.22
2018-09-15T10:24:20.847Z,96773.34
2018-09-15T10:26:51.580Z,96776.63
2018-09-15T10:29:22.026Z,96776.53
2018-09-15T10:31:52.841Z,96779.37
2018-09-15T10:34:23.305Z,96773.48
2018-09-15T10:36:54.044Z,96766.66
2018-09-15T10:39:25.677Z,96770.43
2018-09-15T10:41:55.070Z,96761.94
2018-09-15T10:44:25.495Z,96754.73
2018-09-15T10:46:56.110Z,96757.04
2018-09-15T10:49:26.496Z,96761.68
2018-09-15T10:51:56.977Z,96759.66
2018-09-15T10:54:27.395Z,96766.50
2018-09-15T10:56:57.797Z,96760.66
2018-09-15T10:59:28.195Z,96758.45
2018-09-15T11:01:58.617Z,96763.31
2018-09-15T11:04:28.967Z,96760.27
2018-09-15T11:06:59.399Z,96758.00
2018-09-15T11:09:29.775Z,96751.79
2018-09-15T11:12:00.863Z,96752.03
2018-09-15T11:14:31.607Z,96755.75
2018-09-15T11:17:02.585Z,96754.23
2018-09-15T11:19:33.315Z,96744.26
2018-09-15T11:22:04.199Z,96745.33
2018-09-15T11:24:35.522Z,96736.88
2018-09-15T11:27:06.245Z,96742.84
2018-09-15T11:29:36.963Z,96738.29
2018-09-15T11:32:07.547Z,96737.36
2018-09-15T11:34:37.972Z,96744.13
2018-09-15T11:37:08.320Z,96739.58
2018-09-15T11:39:39.300Z,96742.59
2018-09-15T11:42:09.680Z,96737.65
2018-09-15T11:44:40.078Z,96738.17
2018-09-15T11:47:10.782Z,96734.94
2018-09-15T11:49:41.176Z,96736.20
2018-09-15T11:52:11.700Z,96726.02
2018-09-15T11:54:42.839Z,96734.30
2018-09-15T11:57:13.204Z,96723.22
2018-09-15T11:59:43.946Z,96723.66
2018-09-15T12:02:14.556Z,96722.30
2018-09-15T12:04:44.928Z,96722.80
2018-09-15T12:07:15.337Z,96724.25
2018-09-15T12:09:46.053Z,96720.02
2018-09-15T12:12:16.468Z,96716.93
2018-09-15T12:14:47.268Z,96716.86
2018-09-15T12:17:17.776Z,96714.77
2018-09-15T12:19:48.461Z,96709.98
2018-09-15T12:22:18.900Z,96710.56
2018-09-15T12:24:50.428Z,96705.80
2018-09-15T12:27:20.882Z,96704.20
2018-09-15T12:29:51.268Z,96703.48
2018-09-15T12:32:21.899Z,96695.61
2018-09-15T12:34:52.287Z,96702.59
2018-09-15T12:37:22.693Z,96691.55
2018-09-15T12:41:22.523Z,96702.47
2018-09-15T12:43:52.963Z,96700.97
2018-09-15T12:46:23.358Z,96699.09
2018-09-15T12:48:53.744Z,96708.41
2018-09-15T12:51:24.466Z,96700.98
2018-09-15T12:53:55.024Z,96710.13
2018-09-15T12:56:25.524Z,96704.92
2018-09-15T12:58:55.953Z,96705.12
2018-09-15T13:01:26.306Z,96703.50
2018-09-15T13:03:56.701Z,96698.45
2018-09-15T13:06:27.094Z,96697.70
2018-09-15T13:08:57.584Z,96696.84
2018-09-15T13:11:27.968Z,96699.05
2018-09-15T13:13:58.502Z,96694.70
2018-09-15T13:16:29.610Z,96687.15
2018-09-15T13:19:00.015Z,96683.57
2018-09-15T13:21:30.448Z,96681.05
2018-09-15T13:24:00.927Z,96680.30
2018-09-15T13:26:31.460Z,96678.41
2018-09-15T13:29:01.871Z,96676.39
2018-09-15T13:31:32.241Z,96674.61
2018-09-15T13:34:02.756Z,96668.58
2018-09-15T13:36:33.121Z,96665.19
2018-09-15T13:39:05.073Z,96664.14
2018-09-15T13:41:35.518Z,96667.96
2018-09-15T13:44:05.923Z,96662.66
2018-09-15T13:46:36.497Z,96669.23
2018-09-15T13:49:07.898Z,96663.66
2018-09-15T13:51:38.822Z,96662.00
2018-09-15T13:54:09.666Z,96650.73
2018-09-15T13:56:40.040Z,96656.50
2018-09-15T13:59:10.717Z,96651.64
2018-09-15T14:01:41.473Z,96644.17
2018-09-15T14:04:11.874Z,96640.02
2018-09-15T14:06:42.234Z,96642.02
2018-09-15T14:09:12.757Z,96643.07
2018-09-15T14:11:43.163Z,96636.44
2018-09-15T14:14:13.628Z,96637.97
2018-09-15T14:16:44.117Z,96640.13
2018-09-15T14:19:14.692Z,96641.41
2018-09-15T14:21:45.412Z,96642.31
2018-09-15T14:24:17.012Z,96644.62
2018-09-15T14:26:47.948Z,96640.01
2018-09-15T14:29:18.358Z,96642.09
2018-09-15T14:31:48.770Z,96637.13
2018-09-15T14:34:19.118Z,96640.83
2018-09-15T14:36:49.550Z,96639.49
2018-09-15T14:39:20.107Z,96633.19
2018-09-15T14:41:50.485Z,96629.95
2018-09-15T14:44:20.901Z,96633.73
2018-09-15T14:46:51.372Z,96633.92
2018-09-15T14:49:21.817Z,96633.32
2018-09-15T14:51:52.377Z,96634.91
2018-09-15T14:54:22.742Z,96635.05
2018-09-15T14:56:53.138Z,96631.55
2018-09-15T14:59:23.502Z,96625.91
2018-09-15T15:01:54.232Z,96630.75
2018-09-15T15:04:24.653Z,96627.19
2018-09-15T15:06:55.086Z,96634.92
2018-09-15T15:10:54.808Z,96629.00
2018-09-15T15:13:25.196Z,96631.08
2018-09-15T15:15:55.574Z,96636.73
2018-09-15T15:18:25.883Z,96639.52
2018-09-15T15:20:56.314Z,96635.34
2018-09-15T15:23:26.752Z,96629.55
2018-09-15T15:25:57.509Z,96634.80
2018-09-15T15:28:28.075Z,96629.84
2018-09-15T15:30:58.442Z,96636.79
2018-09-15T15:33:28.886Z,96635.54
2018-09-15T15:35:59.642Z,96625.92
2018-09-15T15:38:30.047Z,96634.21
2018-09-15T15:41:00.337Z,96630.13
2018-09-15T15:43:30.744Z,96632.53
2018-09-15T15:46:01.328Z,96628.17
2018-09-15T15:48:31.670Z,96630.83
2018-09-15T15:51:02.107Z,96631.92
2018-09-15T15:53:32.482Z,96632.80
2018-09-15T15:56:02.899Z,96630.36
2018-09-15T15:58:33.374Z,96638.37
2018-09-15T16:01:04.347Z,96639.00
2018-09-15T16:03:35.027Z,96636.72
2018-09-15T16:06:05.596Z,96629.12
2018-09-15T16:08:36.012Z,96632.47
2018-09-15T16:11:06.765Z,96628.36
2018-09-15T16:13:37.489Z,96632.55
2018-09-15T16:16:08.205Z,96633.80
2018-09-15T16:18:38.953Z,96629.38
2018-09-15T16:21:09.399Z,96630.25
2018-09-15T16:23:39.776Z,96636.84
2018-09-15T16:27:07.234Z,96634.78
2018-09-15T16:29:37.627Z,96634.55
2018-09-15T16:32:08.081Z,96630.10
2018-09-15T16:34:38.486Z,96635.48
2018-09-15T16:37:08.919Z,96630.59
2018-09-15T16:39:39.571Z,96635.37
2018-09-15T16:42:10.003Z,96634.70
2018-09-15T16:44:40.366Z,96638.08
2018-09-15T16:47:59.896Z,96639.42
2018-09-15T16:50:30.238Z,96648.56
2018-09-15T16:53:00.643Z,96645.07
2018-09-15T16:55:31.023Z,96645.17
2018-09-15T16:58:01.389Z,96646.02
2018-09-15T17:00:33.482Z,96648.39
2018-09-15T17:03:03.885Z,96651.52
2018-09-15T17:05:34.289Z,96655.33
2018-09-15T17:08:04.685Z,96659.27
2018-09-15T17:10:35.146Z,96659.16
2018-09-15T17:13:05.563Z,96652.06
2018-09-15T17:15:35.935Z,96658.98
2018-09-15T17:18:06.347Z,96662.01
2018-09-15T17:21:11.293Z,96665.84
2018-09-15T17:23:41.638Z,96667.69
2018-09-15T17:26:12.078Z,96679.39
2018-09-15T17:28:42.482Z,96679.94
2018-09-15T17:31:12.918Z,96673.41
2018-09-15T17:33:43.982Z,96678.43
2018-09-15T17:36:14.378Z,96688.14
2018-09-15T17:38:44.872Z,96688.16
2018-09-15T17:41:15.314Z,96693.09
2018-09-15T17:43:45.705Z,96691.04
2018-09-15T17:46:16.836Z,96694.74
2018-09-15T17:48:47.254Z,96691.19
2018-09-15T17:51:18.000Z,96700.37
2018-09-15T17:53:48.424Z,96703.67
2018-09-15T17:56:18.982Z,96711.56
2018-09-15T17:58:49.520Z,96712.69
2018-09-15T18:01:20.613Z,96715.53
2018-09-15T18:03:51.621Z,96723.49
2018-09-15T18:06:22.060Z,96726.31
2018-09-15T18:08:53.142Z,96721.97
2018-09-15T18:11:23.954Z,96723.75
2018-09-15T18:13:54.376Z,96719.27
2018-09-15T18:16:24.894Z,96725.95
2018-09-15T18:18:55.312Z,96729.29
2018-09-15T18:21:25.734Z,96727.47
2018-09-15T18:23:56.838Z,96725.37
2018-09-15T18:26:27.234Z,96727.34
2018-09-15T18:28:57.636Z,96732.27
2018-09-15T18:31:28.127Z,96736.23
2018-09-15T18:33:58.810Z,96732.46
2018-09-15T18:36:29.633Z,96740.00
2018-09-15T18:39:00.285Z,96737.42
2018-09-15T18:41:30.678Z,96735.12
2018-09-15T18:44:01.414Z,96729.66
2018-09-15T18:46:31.891Z,96724.98
2018-09-15T18:49:02.602Z,96731.05
2018-09-15T18:51:33.748Z,96730.59
2018-09-15T18:54:04.825Z,96733.27
2018-09-15T18:56:35.372Z,96733.13
2018-09-15T18:59:05.952Z,96744.36
2018-09-15T19:01:36.424Z,96743.18
2018-09-15T19:04:06.794Z,96753.39
2018-09-15T19:06:37.210Z,96746.32
2018-09-15T19:09:11.374Z,96756.36
2018-09-15T19:11:42.497Z,96752.52
2018-09-15T19:14:12.391Z,96751.75
2018-09-15T19:16:42.814Z,96753.90
2018-09-15T19:19:13.547Z,96755.76
2018-09-15T19:21:43.399Z,96757.02
2018-09-15T19:24:13.818Z,96762.51
2018-09-15T19:26:43.720Z,96769.02
2018-09-15T19:29:13.744Z,96764.73
2018-09-15T19:31:43.796Z,96765.81
2018-09-15T19:34:13.615Z,96765.09
2018-09-15T19:36:43.454Z,96776.69
2018-09-15T19:39:14.831Z,96766.50
2018-09-15T19:41:44.872Z,96762.47
2018-09-15T19:44:14.697Z,96761.79
2018-09-15T19:46:44.518Z,96758.22
2018-09-15T19:49:14.390Z,96758.52
2018-09-15T19:51:44.320Z,96760.28
2018-09-15T19:54:14.242Z,96752.91
2018-09-15T19:56:44.462Z,96755.14
2018-09-15T19:59:14.649Z,96758.32
2018-09-15T20:01:44.956Z,96759.20
2018-09-15T20:04:14.797Z,96762.88
2018-09-15T20:06:44.970Z,96761.99
2018-09-15T20:09:14.832Z,96764.97
2018-09-15T20:11:45.080Z,96771.86
2018-09-15T20:14:14.981Z,96768.32
2018-09-15T20:16:42.903Z,96768.52
2018-09-15T20:19:10.863Z,96765.95
2018-09-15T20:21:38.941Z,96759.07
2018-09-15T20:24:08.845Z,96754.93
2018-09-15T20:26:38.774Z,96758.10
2018-09-15T20:29:08.730Z,96760.60
2018-09-15T20:31:38.651Z,96766.83
2018-09-15T20:34:08.480Z,96768.34
2018-09-15T20:36:38.302Z,96767.64
2018-09-15T20:39:13.116Z,96769.33
2018-09-15T20:41:43.054Z,96766.80
2018-09-15T20:44:12.910Z,96767.49
2018-09-15T20:46:42.788Z,96768.89
2018-09-15T20:49:12.987Z,96769.20
2018-09-15T20:51:43.315Z,96768.34
2018-09-15T20:54:13.169Z,96766.69
2018-09-15T20:58:11.975Z,96774.63
2018-09-15T21:00:41.945Z,96772.19
2018-09-15T21:03:12.130Z,96773.23
2018-09-15T21:05:42.000Z,96771.09
2018-09-15T21:08:11.846Z,96770.80
2018-09-15T21:10:42.858Z,96769.55
2018-09-15T21:13:12.728Z,96771.73
2018-09-15T21:15:42.696Z,96770.55
2018-09-15T21:18:12.894Z,96775.55
2018-09-15T21:20:43.260Z,96778.36
2018-09-15T21:23:13.385Z,96776.92
2018-09-15T21:25:43.227Z,96780.07
2018-09-15T21:28:13.325Z,96781.45
2018-09-15T21:30:43.178Z,96775.92
2018-09-15T21:33:13.036Z,96782.23
2018-09-15T21:35:43.043Z,96775.36
2018-09-15T21:38:13.205Z,96773.63
2018-09-15T21:40:43.051Z,96771.84
2018-09-15T21:43:12.904Z,96767.02
2018-09-15T21:45:43.216Z,96772.50
2018-09-15T21:48:13.344Z,96772.65
2018-09-15T21:50:43.204Z,96767.16
2018-09-15T21:53:13.055Z,96769.98
2018-09-15T21:55:42.901Z,96768.74
2018-09-15T21:58:12.709Z,96767.22
2018-09-15T22:00:42.902Z,96765.30
2018-09-15T22:03:12.678Z,96762.02
2018-09-15T22:05:42.723Z,96767.53
2018-09-15T22:08:12.663Z,96770.71
2018-09-15T22:10:43.094Z,96770.33
2018-09-15T22:13:13.245Z,96779.94
2018-09-15T22:15:43.137Z,96782.91
2018-09-15T22:18:13.129Z,96779.64
2018-09-15T22:20:43.049Z,96779.22
2018-09-15T22:23:12.834Z,96782.28
2018-09-15T22:25:43.009Z,96779.66
2018-09-15T22:28:12.855Z,96774.98
2018-09-15T22:30:42.665Z,96774.26
2018-09-15T22:33:12.627Z,96774.89
2018-09-15T22:35:42.794Z,96774.93
2018-09-15T22:38:12.643Z,96777.42
2018-09-15T22:40:42.763Z,96774.93
2018-09-15T22:43:12.603Z,96773.73
2018-09-15T22:45:42.485Z,96772.62
2018-09-15T22:48:12.367Z,96781.70
2018-09-15T22:50:42.541Z,96774.89
2018-09-15T22:53:12.411Z,96775.48
2018-09-15T22:55:42.949Z,96768.69
2018-09-15T22:58:12.791Z,96767.52
2018-09-15T23:00:42.649Z,96765.78
2018-09-15T23:03:12.553Z,96763.98
2018-09-15T23:05:42.372Z,96761.40
2018-09-15T23:08:12.503Z,96770.25
2018-09-15T23:10:43.053Z,96767.67
2018-09-15T23:13:12.870Z,96771.05
2018-09-15T23:15:43.007Z,96768.27
2018-09-15T23:18:12.795Z,96767.89
2018-09-15T23:20:42.553Z,96768.89
2018-09-15T23:23:12.482Z,96757.17
2018-09-15T23:25:42.273Z,96756.73
2018-09-15T23:28:12.142Z,96758.54
2018-09-15T23:30:41.917Z,96749.72
2018-09-15T23:33:11.682Z,96759.50
2018-09-15T23:35:41.495Z,96750.56
2018-09-15T23:38:11.315Z,96750.78
2018-09-15T23:40:41.143Z,96745.32
2018-09-15T23:43:11.001Z,96743.98
2018-09-15T23:45:40.862Z,96745.56
2018-09-15T23:48:10.639Z,96741.86
2018-09-15T23:50:40.465Z,96742.03
2018-09-15T23:53:10.324Z,96748.88
2018-09-15T23:55:40.165Z,96741.03
2018-09-15T23:58:10.523Z,96744.20
